Latest Weather Observations for Cape Jaffa

IDS60801

Issued at 8:01 pm CST Tuesday 25 July 2017 (issued every 30 minutes, with the page automatically refreshed every 10 minutes)

About weather observations | Map of weather stations | Latest weather observations for SA | Other Formats
Station Details ID: 026095 Name: THE LIMESTONE Lat: -36.97 Lon: 139.72 Height: 17.0 m
Data from the previous 72 hours. | See also: Recent months at Cape Jaffa
Date/Time
CST
Temp
°C
App
Temp
°C
Dew
Point
°C
Rel
Hum
%
Delta-T
°C
Wind Press
QNH
hPa
Press
MSL
hPa
Rain since
9am
mm
Dir  Spd
km/h
Gust
km/h
Spd
kts
Gust
kts
25/08:00pm 13.3 7.1 9.4 77 2.0 W 32 41 17 22 1015.4 1015.4 2.0
25/07:30pm 13.1 6.0 9.7 80 1.7 W 37 54 20 29 1015.1 1015.1 2.0
25/07:13pm 13.0 6.1 10.4 84 1.3 W 37 61 20 33 1015.1 1015.1 2.0
25/07:10pm 13.4 6.8 10.0 80 1.8 W 35 61 19 33 1015.0 1015.0 2.0
25/07:08pm 14.2 8.0 9.4 73 2.5 WNW 32 61 17 33 1014.9 1014.9 2.0
25/07:00pm 13.8 8.5 8.6 71 2.6 WNW 26 37 14 20 1014.7 1014.7 2.0
25/06:37pm 13.6 8.0 8.9 73 2.4 W 28 46 15 25 1014.9 1014.9 2.0
25/06:30pm 13.9 7.4 8.3 69 2.8 W 32 46 17 25 1014.9 1014.9 2.0
25/06:00pm 14.0 7.8 9.2 73 2.4 W 32 41 17 22 1014.5 1014.5 2.0
25/05:30pm 13.8 8.8 9.5 75 2.2 W 26 35 14 19 1014.2 1014.2 2.0
25/05:00pm 14.0 8.3 9.8 76 2.2 W 30 39 16 21 1014.2 1014.2 2.0
25/04:30pm 14.3 8.1 10.1 76 2.2 W 33 44 18 24 1014.2 1014.2 2.0
25/04:00pm 14.7 8.8 10.3 75 2.3 WNW 32 48 17 26 1014.1 1014.1 2.0
25/03:30pm 14.0 8.3 11.3 84 1.4 WNW 32 44 17 24 1013.9 1013.9 2.0
25/03:00pm 13.3 6.8 10.3 82 1.6 WNW 35 46 19 25 1013.7 1013.7 2.0
25/02:30pm 12.5 7.4 10.7 89 0.9 WNW 28 37 15 20 1013.8 1013.8 1.6
25/02:11pm 13.2 7.8 9.5 78 1.9 WNW 28 52 15 28 1013.6 1013.6 1.0
25/02:00pm 14.3 9.0 11.1 81 1.7 W 30 43 16 23 1013.3 1013.3 0.4
25/01:30pm 15.9 10.9 12.3 79 2.0 WNW 30 41 16 22 1013.6 1013.6 0.4
25/01:00pm 15.3 12.3 11.9 80 1.8 WNW 19 26 10 14 1013.8 1013.8 0.2
25/12:30pm 13.9 9.3 10.9 82 1.6 WNW 26 39 14 21 1014.2 1014.2 0.2
25/12:00pm 16.5 12.8 11.4 72 2.8 WNW 22 33 12 18 1014.5 1014.5 0.0
25/11:30am 16.3 11.3 11.0 71 2.8 WNW 28 33 15 18 1014.9 1014.9 0.0
25/11:00am 16.1 11.4 10.8 71 2.8 WNW 26 33 14 18 1015.1 1015.1 0.0
25/10:30am 15.9 11.4 11.3 74 2.5 WNW 26 33 14 18 1015.1 1015.1 0.0
25/10:00am 14.8 10.6 11.2 79 1.9 W 24 33 13 18 1015.1 1015.1 0.0
25/09:30am 15.1 12.6 12.4 84 1.5 WNW 17 24 9 13 1014.9 1014.9 0.0
25/09:00am 14.9 12.1 13.1 89 1.0 NW 20 26 11 14 1014.8 1014.8 0.2
25/08:30am 14.1 11.2 12.3 89 1.0 NW 19 24 10 13 1014.6 1014.6 0.2
25/08:00am 13.2 10.2 11.8 91 0.7 NNW 19 22 10 12 1014.5 1014.5 0.2
25/07:30am 12.6 10.1 11.0 90 0.8 NNW 15 20 8 11 1014.2 1014.2 0.2
25/07:00am 12.5 9.5 10.6 88 1.0 NNW 17 20 9 11 1014.1 1014.1 0.2
25/06:30am 12.3 9.2 10.4 88 1.0 NNW 17 20 9 11 1013.9 1013.9 0.2
25/06:00am 12.4 9.2 10.1 86 1.2 NNW 17 20 9 11 1014.1 1014.1 0.2
25/05:30am 12.0 8.7 9.7 86 1.2 NNW 17 20 9 11 1014.0 1014.0 0.2
25/05:00am 12.3 8.7 9.7 84 1.3 NNW 19 22 10 12 1013.9 1013.9 0.2
25/04:30am 12.3 8.6 9.3 82 1.5 N 19 26 10 14 1013.8 1013.8 0.2
25/04:00am 12.3 8.4 9.5 83 1.4 N 20 26 11 14 1014.0 1014.0 0.2
25/03:30am 12.6 7.6 9.6 82 1.5 N 26 35 14 19 1013.9 1013.9 0.2
25/03:00am 12.6 7.2 9.4 81 1.6 N 28 35 15 19 1014.0 1014.0 0.2
25/02:30am 12.5 7.1 9.5 82 1.5 N 28 35 15 19 1014.0 1014.0 0.2
25/02:00am 12.1 7.5 9.5 84 1.3 N 24 30 13 16 1014.3 1014.3 0.2
25/01:30am 12.1 7.8 9.3 83 1.4 N 22 30 12 16 1014.6 1014.6 0.2
25/01:00am 12.0 8.1 9.4 84 1.3 N 20 26 11 14 1015.0 1015.0 0.2
25/12:30am 11.9 7.6 9.3 84 1.3 N 22 28 12 15 1015.4 1015.4 0.2
25/12:00am 11.8 7.5 9.4 85 1.2 N 22 26 12 14 1015.8 1015.8 0.2
 
Date/Time
CST
Temp
°C
App
Temp
°C
Dew
Point
°C
Rel
Hum
%
Delta-T
°C
Wind Press
QNH
hPa
Press
MSL
hPa
Rain since
9am
mm
Dir  Spd
km/h
Gust
km/h
Spd
kts
Gust
kts
24/11:30pm 11.9 7.3 9.6 86 1.2 N 24 30 13 16 1016.1 1016.1 0.2
24/11:00pm 11.8 7.2 9.7 87 1.1 N 24 32 13 17 1016.2 1016.2 0.2
24/10:30pm 11.2 8.0 10.0 92 0.6 NNE 17 20 9 11 1016.4 1016.4 0.2
24/10:00pm 11.4 8.2 10.0 91 0.7 NNE 17 20 9 11 1016.9 1016.9 0.2
24/09:30pm 11.2 8.3 9.8 91 0.7 NNE 15 17 8 9 1017.3 1017.3 0.2
24/09:00pm 11.9 9.6 10.3 90 0.8 N 13 15 7 8 1017.5 1017.5 0.2
24/08:30pm 11.5 8.7 10.1 91 0.7 N 15 17 8 9 1017.4 1017.4 0.2
24/08:00pm 11.4 8.9 9.8 90 0.8 N 13 15 7 8 1017.7 1017.7 0.2
24/07:30pm 11.8 9.0 10.0 89 0.9 N 15 19 8 10 1017.7 1017.7 0.2
24/07:00pm 12.6 9.9 10.5 87 1.1 NNW 15 19 8 10 1017.7 1017.7 0.2
24/06:30pm 12.6 10.3 10.5 87 1.1 NNW 13 17 7 9 1017.7 1017.7 0.2
24/06:00pm 13.0 10.0 10.5 85 1.3 NW 17 22 9 12 1017.6 1017.6 0.2
24/05:30pm 12.6 9.0 10.0 84 1.3 NNW 19 24 10 13 1017.5 1017.5 0.2
24/05:00pm 12.9 9.2 10.3 84 1.3 NNW 20 26 11 14 1017.5 1017.5 0.2
24/04:30pm 13.6 10.1 11.0 84 1.4 NNW 20 30 11 16 1017.5 1017.5 0.2
24/04:00pm 13.9 10.2 11.4 85 1.3 NNW 22 28 12 15 1017.5 1017.5 0.2
24/03:30pm 14.2 10.1 11.5 84 1.4 NNW 24 32 13 17 1017.6 1017.6 0.2
24/03:00pm 14.5 10.1 11.8 84 1.5 NNW 26 32 14 17 1017.8 1017.8 0.2
24/02:30pm 13.9 9.7 11.2 84 1.4 NNW 24 32 13 17 1017.9 1017.9 0.2
24/02:00pm 14.8 10.9 12.1 84 1.5 NNW 24 35 13 19 1017.9 1017.9 0.2
24/01:30pm 14.8 10.9 12.1 84 1.5 NNW 24 32 13 17 1018.3 1018.3 0.2
24/01:00pm 14.8 10.8 11.9 83 1.6 NNW 24 30 13 16 1018.4 1018.4 0.2
24/12:30pm 15.0 11.3 11.6 80 1.8 NW 22 33 12 18 1018.7 1018.7 0.2
24/12:00pm 15.0 11.5 12.1 83 1.6 NNW 22 28 12 15 1019.1 1019.1 0.2
24/11:30am 13.8 9.3 11.5 86 1.2 NNW 26 33 14 18 1019.6 1019.6 0.2
24/11:00am 14.9 12.0 11.1 78 2.0 NNW 17 22 9 12 1019.7 1019.7 0.0
24/10:30am 14.3 12.1 10.7 79 1.9 NW 13 17 7 9 1020.1 1020.1 0.0
24/10:00am 14.3 12.2 11.1 81 1.7 NNW 13 19 7 10 1020.1 1020.1 0.0
24/09:30am 13.6 11.8 11.0 84 1.4 NW 11 15 6 8 1019.9 1019.9 0.0
24/09:00am 12.6 11.5 10.5 87 1.1 NW 7 9 4 5 1019.7 1019.7 2.6
24/08:30am 11.5 9.5 10.2 92 0.7 W 11 19 6 10 1019.7 1019.7 2.6
24/08:00am 10.5 9.9 9.1 91 0.7 ESE 2 6 1 3 1019.8 1019.8 1.6
24/07:30am 10.5 9.0 8.3 86 1.1 NW 6 7 3 4 1019.3 1019.3 1.2
24/07:00am 11.5 10.0 9.1 85 1.2 WNW 7 9 4 5 1019.1 1019.1 1.2
24/06:30am 11.0 9.0 8.6 85 1.2 NW 9 13 5 7 1018.9 1018.9 1.2
24/06:00am 11.1 8.9 9.2 88 0.9 NW 11 15 6 8 1018.6 1018.6 1.2
24/05:30am 10.4 8.9 8.5 88 0.9 WNW 6 6 3 3 1018.3 1018.3 1.0
24/05:00am 11.0 9.4 8.6 85 1.2 W 7 7 4 4 1018.1 1018.1 1.0
24/04:30am 11.1 9.5 8.7 85 1.2 W 7 7 4 4 1017.9 1017.9 1.0
24/04:00am 11.1 9.4 8.5 84 1.3 W 7 13 4 7 1017.8 1017.8 1.0
24/03:30am 10.8 8.3 8.2 84 1.3 W 11 13 6 7 1017.9 1017.9 1.0
24/03:00am 11.3 8.1 8.5 83 1.4 W 15 19 8 10 1018.2 1018.2 1.0
24/02:30am 12.0 9.4 9.2 83 1.4 WSW 13 15 7 8 1018.2 1018.2 1.0
24/02:00am 11.9 9.2 9.1 83 1.4 W 13 20 7 11 1018.2 1018.2 1.0
24/01:30am 11.8 8.7 9.0 83 1.4 W 15 20 8 11 1018.2 1018.2 1.0
24/01:00am 11.5 8.8 8.9 84 1.3 W 13 19 7 10 1018.2 1018.2 1.0
24/12:30am 11.2 8.4 8.6 84 1.3 W 13 15 7 8 1018.2 1018.2 1.0
24/12:00am 11.6 8.1 8.6 82 1.5 W 17 20 9 11 1018.1 1018.1 1.0
 
Date/Time
CST
Temp
°C
App
Temp
°C
Dew
Point
°C
Rel
Hum
%
Delta-T
°C
Wind Press
QNH
hPa
Press
MSL
hPa
Rain since
9am
mm
Dir  Spd
km/h
Gust
km/h
Spd
kts
Gust
kts
23/11:30pm 11.6 8.2 9.0 84 1.3 W 17 20 9 11 1018.1 1018.1 1.0
23/11:00pm 11.6 8.6 9.2 85 1.2 W 15 17 8 9 1018.3 1018.3 1.0
23/10:30pm 12.0 8.7 9.4 84 1.3 WSW 17 28 9 15 1018.0 1018.0 0.8
23/10:00pm 11.4 9.1 9.1 86 1.1 W 11 15 6 8 1018.2 1018.2 0.8
23/09:30pm 11.5 9.2 9.1 85 1.2 WSW 11 13 6 7 1017.9 1017.9 0.8
23/09:00pm 11.6 9.4 9.2 85 1.2 WSW 11 15 6 8 1017.7 1017.7 0.8
23/08:30pm 11.7 9.1 9.3 85 1.2 WSW 13 17 7 9 1017.4 1017.4 0.8
23/08:00pm 11.6 8.2 9.0 84 1.3 W 17 20 9 11 1017.3 1017.3 0.8
23/07:30pm 12.6 8.8 9.2 80 1.7 WSW 19 24 10 13 1017.0 1017.0 0.6
23/07:00pm 12.6 8.2 8.9 78 1.9 W 22 30 12 16 1016.7 1016.7 0.6
23/06:30pm 12.5 8.6 8.8 78 1.8 W 19 24 10 13 1016.3 1016.3 0.6
23/06:00pm 12.4 8.5 8.5 77 1.9 W 19 26 10 14 1016.0 1016.0 0.6
23/05:30pm 12.5 8.4 8.6 77 1.9 W 20 28 11 15 1015.7 1015.7 0.6
23/05:00pm 13.1 8.7 8.8 75 2.2 W 22 28 12 15 1015.7 1015.7 0.6
23/04:30pm 13.4 9.5 9.3 76 2.1 W 20 28 11 15 1015.6 1015.6 0.6
23/04:00pm 13.4 9.0 8.9 74 2.3 WSW 22 30 12 16 1015.4 1015.4 0.6
23/03:30pm 14.1 9.6 9.9 76 2.2 WSW 24 32 13 17 1015.1 1015.1 0.6
23/03:00pm 14.8 10.3 10.2 74 2.4 WSW 24 28 13 15 1014.9 1014.9 0.6
23/02:30pm 13.6 9.0 9.5 76 2.1 WSW 24 32 13 17 1014.7 1014.7 0.6
23/02:00pm 13.7 9.5 9.6 76 2.1 WSW 22 33 12 18 1014.4 1014.4 0.0
23/01:30pm 14.8 9.7 9.2 69 2.9 WSW 26 35 14 19 1014.3 1014.3 0.0
23/01:00pm 14.8 10.1 9.2 69 2.9 WSW 24 33 13 18 1014.4 1014.4 0.0
23/12:30pm 14.6 8.8 9.4 71 2.7 WSW 30 35 16 19 1014.6 1014.6 0.0
23/12:00pm 14.7 8.8 9.1 69 2.9 WSW 30 41 16 22 1014.7 1014.7 0.0
23/11:30am 14.5 9.2 9.7 73 2.5 WSW 28 35 15 19 1014.7 1014.7 0.0
23/11:00am 14.4 8.6 9.4 72 2.6 WSW 30 39 16 21 1014.7 1014.7 0.0
23/10:30am 14.6 9.0 10.0 74 2.4 WSW 30 39 16 21 1014.6 1014.6 0.0
23/10:00am 13.3 7.5 9.5 78 1.9 WSW 30 43 16 23 1014.4 1014.4 0.0
23/09:30am 13.9 8.1 9.5 75 2.3 WSW 30 39 16 21 1014.0 1014.0 0.0
23/09:00am 13.0 8.0 9.6 80 1.7 W 26 33 14 18 1013.7 1013.7 0.6
23/08:30am 12.9 9.1 11.0 88 1.0 W 22 28 12 15 1013.3 1013.3 0.6
23/08:00am 11.9 5.7 9.5 85 1.2 W 32 52 17 28 1013.2 1013.2 0.4
23/07:58am 11.9 5.7 9.5 85 1.2 W 32 52 17 28 1013.1 1013.1 0.4
23/07:52am 12.4 7.4 9.4 82 1.5 W 26 52 14 28 1013.0 1013.0 0.2
23/07:30am 12.7 9.3 10.6 87 1.1 WNW 19 28 10 15 1012.9 1012.9 0.2
23/07:00am 12.2 8.0 9.9 86 1.2 WNW 22 32 12 17 1012.7 1012.7 0.0
23/06:38am 12.6 7.3 10.0 84 1.3 W 28 43 15 23 1012.5 1012.5 0.0
23/06:30am 13.0 9.9 10.4 84 1.3 W 17 22 9 12 1012.4 1012.4 0.0
23/06:00am 13.2 9.6 10.4 83 1.5 WNW 20 32 11 17 1012.1 1012.1 0.0
23/05:30am 12.4 8.8 9.8 84 1.3 WNW 19 24 10 13 1012.0 1012.0 0.0
23/05:00am 12.6 9.1 10.1 85 1.3 W 19 24 10 13 1012.0 1012.0 0.0
23/04:30am 13.0 7.5 10.4 84 1.3 W 30 43 16 23 1012.1 1012.1 0.0
23/04:00am 13.3 8.9 9.0 75 2.2 WNW 22 30 12 16 1011.9 1011.9 0.0
23/03:30am 13.5 8.3 9.0 74 2.3 WNW 26 39 14 21 1011.9 1011.9 0.0
23/03:00am 13.2 8.8 9.1 76 2.1 WNW 22 30 12 16 1012.0 1012.0 0.0
23/02:30am 13.5 8.8 9.2 75 2.2 W 24 33 13 18 1011.9 1011.9 0.0
23/02:00am 13.4 9.4 10.4 82 1.6 W 22 28 12 15 1012.0 1012.0 0.0
23/01:30am 13.4 9.4 10.6 83 1.5 W 22 28 12 15 1012.0 1012.0 0.0
23/01:00am 13.9 10.5 11.4 85 1.3 WNW 20 32 11 17 1011.8 1011.8 0.0
23/12:30am 13.5 8.9 10.9 84 1.4 NW 26 37 14 20 1011.7 1011.7 0.0
23/12:00am 13.4 9.3 10.2 81 1.7 W 22 32 12 17 1012.0 1012.0 0.0
 
Date/Time
CST
Temp
°C
App
Temp
°C
Dew
Point
°C
Rel
Hum
%
Delta-T
°C
Wind Press
QNH
hPa
Press
MSL
hPa
Rain since
9am
mm
Dir  Spd
km/h
Gust
km/h
Spd
kts
Gust
kts
22/11:30pm 14.3 10.2 11.6 84 1.4 NW 24 32 13 17 1011.8 1011.8 0.0
22/11:00pm 14.1 9.1 11.1 82 1.6 NW 28 37 15 20 1011.4 1011.4 0.0
22/10:30pm 13.7 9.3 10.3 80 1.8 NW 24 33 13 18 1011.4 1011.4 0.0
22/10:00pm 13.9 8.6 9.7 76 2.2 NNW 28 35 15 19 1011.5 1011.5 0.0
22/09:30pm 13.8 8.8 9.5 75 2.2 NNW 26 37 14 20 1011.8 1011.8 0.0
22/09:00pm 13.5 8.1 9.4 76 2.1 NNW 28 33 15 18 1011.8 1011.8 0.0
22/08:30pm 13.5 8.0 9.2 75 2.2 NNW 28 37 15 20 1011.9 1011.9 0.0

Other Formats:

Comma delimited format used in spreadsheet applications
http://www.bom.gov.au/fwo/IDS60801/IDS60801.94813.axf

JavaScript Object Notation format (JSON) in row-major order
http://www.bom.gov.au/fwo/IDS60801/IDS60801.94813.json